Time;durP1;ratioP1;P1;durP2;ratioP2;P2;SDS_P1;SDS_P2;PMS_P1;PMS_P2;Temp;Humidity;BMP_temperature;BMP_pressure;BME280_temperature;BME280_humidity;BME280_pressure;Samples;Min_cycle;Max_cycle;Signal;HPM_P1;HPM_P2
2023/03/14 00:01:45;;;;;;;9.13;1.50;;;20.80;74.90;;;;;;5049574;28;20199;-49
2023/03/14 00:04:12;;;;;;;3.78;0.90;;;20.70;74.70;;;;;;5045004;28;20215;-47
2023/03/14 00:06:39;;;;;;;1.00;0.80;;;20.70;74.70;;;;;;5042843;28;20214;-51
2023/03/14 00:09:05;;;;;;;1.55;1.00;;;20.70;74.60;;;;;;5049076;28;20505;-46
2023/03/14 00:11:33;;;;;;;1.00;0.70;;;20.70;74.50;;;;;;5041976;28;20196;-47
2023/03/14 00:14:00;;;;;;;1.65;0.80;;;20.80;74.50;;;;;;5046164;28;20192;-56
2023/03/14 00:16:27;;;;;;;1.35;0.90;;;20.80;74.40;;;;;;5042200;28;20205;-53
2023/03/14 00:18:54;;;;;;;1.52;0.90;;;20.80;74.30;;;;;;5038682;28;20229;-51
2023/03/14 00:21:21;;;;;;;1.13;0.70;;;20.80;74.30;;;;;;5045475;28;20821;-49
2023/03/14 00:23:48;;;;;;;1.33;0.90;;;20.80;74.20;;;;;;5045475;28;20206;-56
2023/03/14 00:26:18;;;;;;;1.40;0.90;;;20.70;74.10;;;;;;5042178;28;20211;-55
2023/03/14 00:28:47;;;;;;;1.95;0.82;;;20.70;74.10;;;;;;5044430;28;20677;-51
2023/03/14 00:31:15;;;;;;;1.65;1.00;;;20.70;74.10;;;;;;5034396;28;20677;-47
2023/03/14 00:33:43;;;;;;;1.02;0.70;;;20.70;74.10;;;;;;5037263;28;20202;-46
2023/03/14 00:36:12;;;;;;;1.13;1.00;;;20.70;74.00;;;;;;5043503;28;20202;-50
2023/03/14 00:38:40;;;;;;;4.20;1.00;;;20.70;74.10;;;;;;5043619;28;20203;-47
2023/03/14 00:41:08;;;;;;;1.40;1.13;;;20.70;74.00;;;;;;5038295;28;20196;-46
2023/03/14 00:43:35;;;;;;;1.00;0.80;;;20.70;74.10;;;;;;5044489;28;20278;-46
2023/03/14 00:46:04;;;;;;;1.20;0.90;;;20.70;74.00;;;;;;5042154;28;20196;-49
2023/03/14 00:48:31;;;;;;;1.63;0.85;;;20.70;74.10;;;;;;5041426;28;20215;-46
2023/03/14 00:50:58;;;;;;;2.08;0.90;;;20.60;73.90;;;;;;5045412;28;20195;-48
2023/03/14 00:53:24;;;;;;;1.55;0.90;;;20.60;73.90;;;;;;5046938;28;20203;-46
2023/03/14 00:55:51;;;;;;;2.90;0.70;;;20.60;73.90;;;;;;5048439;28;20564;-46
2023/03/14 00:58:19;;;;;;;2.55;1.02;;;20.60;73.90;;;;;;5047264;28;20567;-47
2023/03/14 01:00:46;;;;;;;1.10;0.80;;;20.60;74.00;;;;;;5039097;28;20207;-49
2023/03/14 01:03:15;;;;;;;1.15;0.95;;;20.60;73.90;;;;;;5048147;28;20219;-52
2023/03/14 01:05:42;;;;;;;1.15;1.00;;;20.60;73.90;;;;;;5047038;28;20195;-50
2023/03/14 01:08:08;;;;;;;3.58;0.80;;;20.60;73.90;;;;;;5046237;28;20548;-46
2023/03/14 01:10:38;;;;;;;1.52;0.90;;;20.60;73.90;;;;;;5044130;28;20556;-47
2023/03/14 01:13:04;;;;;;;1.58;0.90;;;20.60;73.90;;;;;;5037721;28;20202;-49
2023/03/14 01:15:33;;;;;;;1.63;0.90;;;20.50;73.80;;;;;;5045396;28;20188;-46
2023/03/14 01:17:59;;;;;;;0.90;0.73;;;20.50;73.80;;;;;;5041222;28;20660;-46
2023/03/14 01:20:27;;;;;;;1.00;0.80;;;20.50;73.90;;;;;;5041393;28;20203;-47
2023/03/14 01:22:54;;;;;;;1.20;0.90;;;20.50;73.90;;;;;;5040814;28;20586;-47
2023/03/14 01:25:21;;;;;;;1.10;0.75;;;20.50;73.80;;;;;;5041979;28;20199;-46
2023/03/14 01:27:47;;;;;;;1.13;0.70;;;20.50;73.80;;;;;;5044017;28;20643;-52
2023/03/14 01:30:15;;;;;;;1.20;1.00;;;20.50;73.90;;;;;;5043493;28;20228;-48
2023/03/14 01:32:41;;;;;;;0.90;0.70;;;20.50;73.80;;;;;;5046580;28;20199;-46
2023/03/14 01:35:09;;;;;;;3.10;1.00;;;20.50;73.90;;;;;;5044077;28;20199;-48
2023/03/14 01:37:37;;;;;;;1.30;0.90;;;20.50;73.90;;;;;;5048277;28;20191;-48
2023/03/14 01:40:05;;;;;;;1.10;0.90;;;20.40;73.70;;;;;;5044391;28;20202;-46
2023/03/14 01:42:32;;;;;;;1.30;0.80;;;20.40;73.70;;;;;;5035087;28;20652;-47
2023/03/14 01:45:01;;;;;;;1.23;0.80;;;20.40;73.70;;;;;;5042383;28;20195;-52
2023/03/14 01:47:28;;;;;;;0.93;0.70;;;20.40;73.70;;;;;;5047151;28;20196;-50
2023/03/14 01:49:59;;;;;;;1.10;0.80;;;20.40;73.70;;;;;;5045449;28;20227;-48
2023/03/14 01:52:31;;;;;;;1.27;1.17;;;20.40;73.80;;;;;;5044310;28;20682;-47
2023/03/14 01:55:05;;;;;;;0.90;0.77;;;20.40;73.80;;;;;;5044410;28;20556;-54
2023/03/14 01:57:36;;;;;;;1.00;0.90;;;20.40;73.80;;;;;;5035497;28;20641;-48
2023/03/14 02:00:11;;;;;;;4.20;0.93;;;20.40;74.60;;;;;;5038392;28;20208;-47
2023/03/14 02:02:39;;;;;;;1.67;0.70;;;20.40;73.80;;;;;;5038356;28;20203;-49
2023/03/14 02:05:06;;;;;;;0.95;0.75;;;20.40;73.80;;;;;;5043180;28;20203;-46
2023/03/14 02:07:39;;;;;;;0.90;0.70;;;20.30;73.70;;;;;;5046284;28;20194;-47
2023/03/14 02:10:08;;;;;;;1.88;0.90;;;20.30;73.70;;;;;;5044255;28;20227;-48
2023/03/14 02:12:36;;;;;;;1.15;0.85;;;20.30;73.70;;;;;;5044956;28;20591;-49
2023/03/14 02:15:03;;;;;;;1.10;0.82;;;20.30;73.70;;;;;;5041109;28;20687;-53
2023/03/14 02:17:29;;;;;;;1.30;1.10;;;20.30;73.70;;;;;;5049145;28;20199;-49
2023/03/14 02:20:14;;;;;;;1.33;0.90;;;20.30;73.70;;;;;;5049040;28;20647;-51
2023/03/14 02:22:45;;;;;;;2.50;1.20;;;20.30;73.70;;;;;;5048508;28;20219;-48
2023/03/14 02:25:18;;;;;;;1.10;0.80;;;20.30;73.70;;;;;;5049003;28;20199;-46
2023/03/14 02:27:47;;;;;;;1.80;1.00;;;20.30;73.70;;;;;;5045258;28;20234;-49
2023/03/14 02:30:17;;;;;;;1.00;0.80;;;20.20;73.70;;;;;;5048679;28;20238;-51
2023/03/14 02:32:46;;;;;;;1.73;0.88;;;20.20;73.60;;;;;;5049729;28;20203;-46
2023/03/14 02:35:18;;;;;;;1.90;1.02;;;20.20;73.60;;;;;;5048742;28;20211;-47
2023/03/14 02:37:48;;;;;;;2.00;1.00;;;20.20;73.60;;;;;;5048392;28;20203;-52
2023/03/14 02:40:16;;;;;;;1.45;0.80;;;20.20;73.50;;;;;;5044745;28;20231;-48
2023/03/14 02:42:43;;;;;;;0.90;0.65;;;20.30;73.50;;;;;;5046411;28;20211;-52
2023/03/14 02:45:38;;;;;;;1.10;0.85;;;20.20;73.40;;;;;;5049769;28;20199;-47
2023/03/14 02:48:09;;;;;;;1.27;0.90;;;20.20;73.40;;;;;;5046737;28;20199;-49
2023/03/14 02:50:36;;;;;;;0.90;0.73;;;20.20;73.40;;;;;;5045154;28;20218;-50
2023/03/14 02:53:03;;;;;;;1.10;0.70;;;20.20;73.40;;;;;;5045703;28;20202;-48
2023/03/14 02:55:30;;;;;;;1.42;1.00;;;20.20;73.40;;;;;;5038344;28;20541;-48
2023/03/14 02:57:56;;;;;;;1.10;0.82;;;20.20;73.40;;;;;;5045678;28;20681;-53
2023/03/14 03:00:23;;;;;;;1.05;0.77;;;20.20;73.40;;;;;;5044562;28;20203;-47
2023/03/14 03:02:51;;;;;;;1.10;0.80;;;20.20;73.30;;;;;;5038975;28;20219;-47
2023/03/14 03:05:18;;;;;;;1.40;0.80;;;20.20;73.30;;;;;;5043072;28;20202;-55
2023/03/14 03:07:45;;;;;;;1.20;0.80;;;20.20;73.30;;;;;;5046885;28;20582;-55
2023/03/14 03:10:12;;;;;;;1.00;0.80;;;20.20;73.20;;;;;;5052229;28;20226;-50
2023/03/14 03:12:38;;;;;;;0.90;0.75;;;20.20;73.30;;;;;;5045179;28;20196;-47
2023/03/14 03:15:06;;;;;;;1.00;0.70;;;20.20;73.30;;;;;;5042714;28;20219;-46
2023/03/14 03:17:33;;;;;;;1.00;0.88;;;20.20;73.60;;;;;;5038371;28;20191;-50
2023/03/14 03:20:01;;;;;;;1.35;0.90;;;20.10;73.20;;;;;;5048074;28;20200;-47
2023/03/14 03:22:27;;;;;;;1.13;0.95;;;20.10;73.20;;;;;;5045033;28;20592;-46
2023/03/14 03:24:54;;;;;;;1.60;0.90;;;20.10;73.20;;;;;;5042639;28;20204;-47
2023/03/14 03:27:21;;;;;;;1.30;1.00;;;20.10;73.20;;;;;;5045672;28;20203;-52
2023/03/14 03:29:48;;;;;;;1.10;0.80;;;20.10;73.10;;;;;;5042613;28;20420;-46
2023/03/14 03:32:15;;;;;;;1.00;0.80;;;20.10;73.20;;;;;;5046303;28;20640;-49
2023/03/14 03:34:41;;;;;;;1.10;0.85;;;20.10;73.20;;;;;;5046024;28;20206;-48
2023/03/14 03:37:09;;;;;;;1.90;0.80;;;20.10;73.20;;;;;;5046742;28;20207;-47
2023/03/14 03:39:36;;;;;;;1.17;0.80;;;20.10;73.20;;;;;;5037587;28;20200;-47
2023/03/14 03:42:03;;;;;;;2.10;0.80;;;20.10;73.20;;;;;;5036774;28;20577;-51
2023/03/14 03:44:29;;;;;;;1.70;0.80;;;20.10;73.20;;;;;;5042345;28;20567;-51
2023/03/14 03:46:56;;;;;;;1.00;0.70;;;20.10;73.20;;;;;;5040957;28;20191;-52
2023/03/14 03:49:23;;;;;;;1.20;0.88;;;20.10;73.20;;;;;;5042435;28;20231;-48
2023/03/14 03:51:49;;;;;;;0.98;0.82;;;20.10;73.20;;;;;;5047895;28;20200;-51
2023/03/14 03:54:17;;;;;;;1.10;0.70;;;20.00;73.10;;;;;;5042321;28;20203;-47
2023/03/14 03:56:44;;;;;;;1.00;0.80;;;20.00;73.10;;;;;;5038459;28;20587;-49
2023/03/14 03:59:11;;;;;;;1.60;1.27;;;20.00;73.10;;;;;;5042423;28;20214;-51
2023/03/14 04:01:37;;;;;;;1.25;1.02;;;20.00;73.10;;;;;;5044708;28;20203;-48
2023/03/14 04:04:04;;;;;;;1.00;0.70;;;20.00;73.10;;;;;;5041209;28;20825;-48
2023/03/14 04:06:31;;;;;;;1.85;0.80;;;20.00;73.10;;;;;;5042746;28;20193;-47
2023/03/14 04:08:58;;;;;;;1.00;0.70;;;20.00;73.10;;;;;;5044713;28;20690;-49
2023/03/14 04:11:26;;;;;;;1.10;0.90;;;20.00;73.10;;;;;;5043395;28;20188;-47
2023/03/14 04:13:52;;;;;;;1.98;0.70;;;20.00;73.10;;;;;;5044978;28;20203;-47
2023/03/14 04:16:22;;;;;;;1.10;0.85;;;20.00;73.10;;;;;;5043887;28;20203;-51
2023/03/14 04:18:48;;;;;;;0.90;0.77;;;20.00;73.90;;;;;;5047183;28;20210;-50
2023/03/14 04:21:15;;;;;;;1.10;0.85;;;20.00;73.10;;;;;;5048830;28;20587;-46
2023/03/14 04:23:42;;;;;;;1.00;0.68;;;19.90;73.00;;;;;;5047138;28;20195;-49
2023/03/14 04:26:09;;;;;;;1.30;0.70;;;19.90;73.00;;;;;;5045362;28;20215;-50
2023/03/14 04:28:38;;;;;;;1.10;0.95;;;19.90;73.00;;;;;;5044138;28;20191;-52
2023/03/14 04:31:08;;;;;;;0.90;0.73;;;19.90;73.00;;;;;;5040650;28;20255;-46
2023/03/14 04:33:35;;;;;;;1.00;0.80;;;19.90;72.90;;;;;;5047998;28;20219;-46
2023/03/14 04:36:03;;;;;;;1.02;0.70;;;19.90;72.90;;;;;;5041782;28;20303;-47
2023/03/14 04:38:30;;;;;;;2.00;0.80;;;19.90;73.00;;;;;;5046216;28;20674;-52
2023/03/14 04:40:56;;;;;;;1.02;0.77;;;19.90;73.00;;;;;;5048116;28;20651;-49
2023/03/14 04:43:23;;;;;;;1.60;0.80;;;19.90;73.10;;;;;;5045776;28;20801;-47
2023/03/14 04:45:51;;;;;;;1.00;0.70;;;19.90;73.00;;;;;;5043499;28;20372;-48
2023/03/14 04:48:18;;;;;;;1.00;0.77;;;19.90;73.00;;;;;;5045833;28;20202;-50
2023/03/14 04:50:46;;;;;;;2.53;0.80;;;19.90;73.00;;;;;;5038415;28;20234;-50
2023/03/14 04:53:12;;;;;;;3.08;0.80;;;19.90;73.00;;;;;;5042005;28;20199;-47
2023/03/14 04:55:39;;;;;;;1.00;0.80;;;19.90;73.80;;;;;;5046632;28;20192;-48
2023/03/14 04:58:06;;;;;;;0.90;0.80;;;19.80;72.90;;;;;;5041212;28;20203;-53
2023/03/14 05:00:33;;;;;;;1.13;0.70;;;19.90;73.00;;;;;;5045375;28;20231;-51
2023/03/14 05:03:01;;;;;;;0.90;0.70;;;19.80;72.90;;;;;;5047677;28;20202;-47
2023/03/14 05:05:27;;;;;;;0.90;0.80;;;19.80;72.90;;;;;;5042622;28;20560;-47
2023/03/14 05:07:54;;;;;;;1.00;0.90;;;19.80;72.90;;;;;;5038477;28;20207;-50
2023/03/14 05:10:21;;;;;;;0.90;0.70;;;19.80;72.90;;;;;;5044203;28;20234;-48
2023/03/14 05:12:47;;;;;;;1.17;0.80;;;19.80;72.90;;;;;;5042249;28;20195;-51
2023/03/14 05:15:14;;;;;;;1.00;0.75;;;19.80;72.90;;;;;;5040339;28;20229;-50
2023/03/14 05:17:41;;;;;;;1.10;0.82;;;19.80;72.90;;;;;;5040265;28;20199;-47
2023/03/14 05:20:12;;;;;;;1.10;0.90;;;19.80;72.90;;;;;;5042054;28;20567;-46
2023/03/14 05:22:40;;;;;;;1.40;0.98;;;19.80;72.90;;;;;;5042261;28;20647;-46
2023/03/14 05:25:07;;;;;;;1.10;0.90;;;19.80;72.90;;;;;;5040400;28;20215;-48
2023/03/14 05:27:34;;;;;;;1.23;0.93;;;19.80;72.80;;;;;;5039744;28;20782;-48
2023/03/14 05:30:01;;;;;;;0.95;0.70;;;19.80;72.80;;;;;;5046979;28;20218;-58
2023/03/14 05:32:27;;;;;;;1.40;0.80;;;19.80;72.70;;;;;;5037620;28;20223;-46
2023/03/14 05:34:57;;;;;;;1.00;0.80;;;19.80;72.70;;;;;;5043864;28;20206;-50
2023/03/14 05:37:26;;;;;;;0.80;0.60;;;19.80;72.70;;;;;;5040442;28;20222;-51
2023/03/14 05:39:52;;;;;;;0.90;0.70;;;19.80;72.70;;;;;;5037762;28;20231;-47
2023/03/14 05:42:20;;;;;;;1.00;0.73;;;19.80;72.60;;;;;;5031862;28;20211;-47
2023/03/14 05:44:46;;;;;;;1.20;0.70;;;19.80;72.60;;;;;;5044693;28;20202;-54
2023/03/14 05:47:13;;;;;;;1.00;0.73;;;19.80;72.60;;;;;;5038105;28;20195;-47
2023/03/14 05:49:40;;;;;;;1.55;0.90;;;19.80;72.60;;;;;;5047306;28;20567;-49
2023/03/14 05:52:06;;;;;;;1.20;0.90;;;19.80;72.60;;;;;;5047397;28;20195;-54
2023/03/14 05:54:35;;;;;;;0.90;0.73;;;19.80;72.50;;;;;;5049276;28;20192;-47
2023/03/14 05:57:01;;;;;;;1.00;0.70;;;19.80;72.60;;;;;;5047888;28;20206;-49
2023/03/14 05:59:31;;;;;;;1.05;0.93;;;19.80;72.60;;;;;;5047910;28;20200;-50
2023/03/14 06:01:58;;;;;;;0.90;0.80;;;19.80;72.60;;;;;;5050114;28;20195;-51
2023/03/14 06:04:25;;;;;;;1.30;0.93;;;19.80;72.60;;;;;;5050482;28;20194;-51
2023/03/14 06:06:52;;;;;;;1.40;0.80;;;19.70;72.50;;;;;;5047660;28;20269;-46
2023/03/14 06:09:19;;;;;;;1.55;0.90;;;19.80;72.60;;;;;;5047674;28;20205;-51
2023/03/14 06:11:47;;;;;;;1.30;0.60;;;19.70;72.40;;;;;;5049363;28;20250;-48
2023/03/14 06:14:14;;;;;;;1.10;0.85;;;19.70;72.40;;;;;;5048075;28;20199;-45
2023/03/14 06:16:41;;;;;;;1.00;0.70;;;19.70;72.40;;;;;;5050287;28;20586;-50
2023/03/14 06:19:07;;;;;;;1.00;0.80;;;19.80;72.50;;;;;;5047743;28;20200;-50
2023/03/14 06:21:34;;;;;;;1.20;0.88;;;19.80;72.30;;;;;;5047160;28;21198;-47
2023/03/14 06:24:01;;;;;;;1.23;0.80;;;19.80;72.20;;;;;;5047814;28;20196;-58
2023/03/14 06:26:28;;;;;;;0.90;0.70;;;19.80;72.20;;;;;;5050368;28;20198;-46
2023/03/14 06:28:56;;;;;;;0.90;0.68;;;19.80;72.20;;;;;;5046583;28;20241;-51
2023/03/14 06:31:23;;;;;;;1.23;0.70;;;19.90;72.30;;;;;;5046693;28;20583;-56
2023/03/14 06:33:49;;;;;;;0.90;0.70;;;19.90;72.30;;;;;;5047596;28;20686;-50
2023/03/14 06:36:16;;;;;;;1.10;0.80;;;19.90;72.30;;;;;;5047853;28;20218;-47
2023/03/14 06:38:43;;;;;;;1.05;0.80;;;19.90;72.20;;;;;;5044684;28;20207;-51
2023/03/14 06:41:10;;;;;;;1.00;0.90;;;19.90;72.20;;;;;;5046292;28;20572;-46
2023/03/14 06:43:36;;;;;;;0.90;0.70;;;19.90;72.20;;;;;;5047613;28;20199;-46
2023/03/14 06:46:05;;;;;;;0.88;0.65;;;19.90;72.20;;;;;;5046348;28;20679;-56
2023/03/14 06:48:31;;;;;;;0.85;0.70;;;19.90;72.20;;;;;;5039598;28;20203;-51
2023/03/14 06:50:58;;;;;;;1.10;0.80;;;19.90;72.20;;;;;;5042542;28;20621;-47
2023/03/14 06:53:25;;;;;;;1.20;0.80;;;19.90;72.20;;;;;;5045977;28;20219;-53
2023/03/14 06:55:52;;;;;;;2.30;0.85;;;19.90;73.00;;;;;;5043051;28;20243;-51
2023/03/14 06:58:20;;;;;;;1.20;0.93;;;19.90;72.20;;;;;;5041630;28;20203;-53
2023/03/14 07:00:47;;;;;;;1.30;0.90;;;19.90;72.20;;;;;;5043166;28;20207;-56
2023/03/14 07:03:16;;;;;;;0.90;0.63;;;19.90;72.10;;;;;;5044415;28;20193;-54
2023/03/14 07:05:43;;;;;;;1.10;0.75;;;19.90;72.10;;;;;;5044570;28;20218;-49
2023/03/14 07:08:09;;;;;;;1.33;0.90;;;19.90;72.00;;;;;;5043394;28;20218;-49
2023/03/14 07:10:36;;;;;;;1.00;0.70;;;20.00;72.10;;;;;;5044881;28;20220;-45
2023/03/14 07:13:03;;;;;;;0.90;0.60;;;20.00;72.00;;;;;;5044286;28;20203;-53
2023/03/14 07:15:30;;;;;;;0.90;0.70;;;20.00;72.00;;;;;;5041151;28;20188;-47
2023/03/14 07:17:57;;;;;;;1.42;0.90;;;20.00;72.00;;;;;;5038978;28;20207;-48
2023/03/14 07:20:25;;;;;;;1.00;0.80;;;20.00;71.90;;;;;;5041677;28;20252;-51
2023/03/14 07:22:52;;;;;;;1.02;0.70;;;20.10;72.00;;;;;;5044194;28;20219;-50
2023/03/14 07:25:19;;;;;;;0.98;0.70;;;20.10;72.00;;;;;;5042320;28;20200;-47
2023/03/14 07:27:46;;;;;;;1.40;1.20;;;20.10;72.00;;;;;;5042915;28;20199;-51
2023/03/14 07:30:14;;;;;;;0.85;0.68;;;20.10;72.00;;;;;;5043341;28;20227;-47
2023/03/14 07:32:41;;;;;;;0.90;0.60;;;20.10;72.00;;;;;;5040677;28;20200;-47
2023/03/14 07:35:08;;;;;;;0.90;0.73;;;20.10;72.00;;;;;;5041610;28;20200;-49
2023/03/14 07:37:37;;;;;;;0.95;0.70;;;20.10;72.00;;;;;;5037267;28;20277;-51
2023/03/14 07:40:06;;;;;;;1.00;0.80;;;20.10;72.00;;;;;;5047602;28;20202;-47
2023/03/14 07:42:33;;;;;;;1.10;0.70;;;20.10;71.80;;;;;;5043211;28;20207;-46
2023/03/14 07:45:00;;;;;;;1.10;0.80;;;20.10;71.80;;;;;;5044336;28;20226;-46
2023/03/14 07:47:26;;;;;;;0.80;0.60;;;20.10;71.80;;;;;;5045029;28;20203;-48
2023/03/14 07:49:53;;;;;;;1.20;0.85;;;20.10;71.80;;;;;;5039286;28;20193;-47
2023/03/14 07:52:20;;;;;;;0.98;0.70;;;20.10;71.80;;;;;;5045834;28;20238;-49
2023/03/14 07:54:48;;;;;;;1.00;0.75;;;20.10;71.80;;;;;;5047420;28;20195;-49
2023/03/14 07:57:15;;;;;;;1.10;0.90;;;20.10;71.80;;;;;;5044977;28;20274;-45
2023/03/14 07:59:41;;;;;;;1.00;0.60;;;20.10;71.80;;;;;;5049246;28;20203;-47
2023/03/14 08:02:12;;;;;;;1.00;0.70;;;20.10;71.80;;;;;;5046202;28;20211;-52
2023/03/14 08:04:38;;;;;;;0.93;0.68;;;20.20;71.90;;;;;;5045889;28;20567;-48
2023/03/14 08:07:05;;;;;;;0.90;0.68;;;20.20;71.90;;;;;;5044366;28;20222;-46
2023/03/14 08:09:32;;;;;;;0.90;0.70;;;20.20;71.90;;;;;;5047041;28;20188;-50
2023/03/14 08:12:00;;;;;;;1.52;0.70;;;20.20;71.80;;;;;;5044052;28;20230;-46
2023/03/14 08:14:28;;;;;;;0.80;0.70;;;20.20;71.80;;;;;;5045066;28;20188;-48
2023/03/14 08:16:55;;;;;;;2.05;0.60;;;20.20;71.80;;;;;;5040030;28;20192;-55
2023/03/14 08:19:22;;;;;;;1.98;0.82;;;20.20;71.90;;;;;;5045433;28;20545;-51
2023/03/14 08:21:49;;;;;;;2.45;0.70;;;20.20;72.00;;;;;;5046337;28;20239;-53
2023/03/14 08:24:15;;;;;;;0.95;0.63;;;20.20;72.00;;;;;;5041409;28;20544;-46
2023/03/14 08:26:42;;;;;;;0.93;0.70;;;20.20;72.00;;;;;;5047077;28;20195;-49
2023/03/14 08:29:12;;;;;;;1.63;0.60;;;20.20;72.10;;;;;;5037209;28;20200;-57
2023/03/14 08:31:39;;;;;;;1.83;0.80;;;20.20;72.10;;;;;;5042554;28;20234;-51
2023/03/14 08:34:06;;;;;;;1.80;0.80;;;20.20;72.00;;;;;;5044216;28;20203;-47
2023/03/14 08:36:33;;;;;;;1.52;0.80;;;20.20;71.90;;;;;;5042840;28;20245;-51
2023/03/14 08:39:00;;;;;;;0.90;0.77;;;20.20;71.90;;;;;;5043923;28;20195;-54
2023/03/14 08:41:27;;;;;;;1.00;0.80;;;20.20;71.90;;;;;;5041870;28;20214;-47
2023/03/14 08:43:53;;;;;;;0.90;0.80;;;20.20;72.80;;;;;;5041236;28;20683;-49
2023/03/14 08:46:21;;;;;;;0.90;0.70;;;20.20;72.00;;;;;;5044895;28;20215;-54
2023/03/14 08:48:48;;;;;;;1.00;0.70;;;20.20;72.00;;;;;;5045599;28;20203;-56
2023/03/14 08:51:15;;;;;;;0.95;0.70;;;20.30;72.10;;;;;;5041582;28;20223;-51
2023/03/14 08:53:42;;;;;;;0.90;0.70;;;20.30;72.00;;;;;;5046783;28;20281;-45
2023/03/14 08:56:10;;;;;;;2.67;0.90;;;20.30;71.90;;;;;;5038531;28;20200;-56
2023/03/14 08:58:37;;;;;;;1.42;0.85;;;20.40;72.40;;;;;;5040050;28;20268;-52
2023/03/14 09:01:05;;;;;;;2.58;0.70;;;20.40;72.10;;;;;;5043639;28;20706;-50
2023/03/14 09:03:33;;;;;;;1.70;0.90;;;20.40;72.10;;;;;;5038213;28;20191;-49
2023/03/14 09:06:04;;;;;;;1.00;0.70;;;20.30;72.10;;;;;;5043819;28;20203;-51
2023/03/14 09:08:30;;;;;;;1.10;0.75;;;20.30;72.00;;;;;;5033392;28;20195;-53
2023/03/14 09:10:57;;;;;;;0.90;0.60;;;20.30;72.00;;;;;;5042355;28;20221;-54
2023/03/14 09:13:24;;;;;;;0.90;0.70;;;20.30;72.00;;;;;;5042323;28;20670;-50
2023/03/14 09:15:52;;;;;;;3.95;1.27;;;20.30;72.00;;;;;;5045385;28;20195;-53
2023/03/14 09:18:19;;;;;;;1.27;0.60;;;20.30;72.00;;;;;;5039664;28;20434;-51
2023/03/14 09:20:47;;;;;;;0.90;0.70;;;20.30;72.00;;;;;;5037539;28;20199;-48
2023/03/14 09:23:13;;;;;;;1.10;0.70;;;20.30;72.00;;;;;;5039395;28;20211;-54
2023/03/14 09:25:40;;;;;;;1.05;0.80;;;20.30;72.00;;;;;;5036883;28;20243;-47
2023/03/14 09:28:07;;;;;;;0.98;0.73;;;20.30;72.00;;;;;;5034673;28;20206;-49
2023/03/14 09:30:34;;;;;;;1.30;0.70;;;20.30;72.00;;;;;;5036021;28;20195;-49
2023/03/14 09:33:00;;;;;;;1.50;0.80;;;20.30;72.00;;;;;;5035496;28;20212;-52
2023/03/14 09:35:27;;;;;;;1.25;0.70;;;20.30;72.00;;;;;;5039985;28;20203;-48
2023/03/14 09:37:55;;;;;;;5.75;1.25;;;20.30;72.00;;;;;;5042528;28;20347;-48
2023/03/14 09:40:23;;;;;;;1.25;0.80;;;20.30;71.90;;;;;;5043365;28;20199;-47
2023/03/14 09:42:52;;;;;;;1.52;0.70;;;20.30;71.90;;;;;;5041130;28;20671;-47
2023/03/14 09:45:26;;;;;;;0.90;0.70;;;20.30;71.90;;;;;;5040313;28;20230;-49
2023/03/14 09:47:54;;;;;;;1.25;0.80;;;20.40;72.00;;;;;;5036633;28;20203;-53
2023/03/14 09:50:21;;;;;;;1.23;0.70;;;20.40;71.90;;;;;;5040376;28;21852;-48
2023/03/14 09:52:52;;;;;;;1.40;0.80;;;20.40;71.90;;;;;;5040340;28;20219;-48
2023/03/14 09:55:22;;;;;;;0.90;0.70;;;20.40;71.90;;;;;;5043912;28;20206;-47
2023/03/14 09:57:52;;;;;;;0.90;0.70;;;20.40;71.90;;;;;;5045702;28;20196;-53
2023/03/14 10:00:21;;;;;;;0.90;0.70;;;20.40;71.90;;;;;;5043202;28;20199;-57
2023/03/14 10:02:53;;;;;;;0.95;0.70;;;20.40;71.90;;;;;;5041842;28;20200;-47
2023/03/14 10:05:22;;;;;;;0.90;0.77;;;20.40;71.80;;;;;;5044262;28;20195;-47
2023/03/14 10:07:48;;;;;;;0.90;0.70;;;20.40;71.90;;;;;;5041339;28;20202;-47
2023/03/14 10:10:18;;;;;;;1.10;0.77;;;20.40;71.90;;;;;;5042028;28;20191;-51
2023/03/14 10:12:49;;;;;;;1.02;0.90;;;20.40;71.90;;;;;;5047460;28;20214;-50
2023/03/14 10:15:23;;;;;;;1.10;0.77;;;20.40;72.00;;;;;;5041252;28;20218;-58
2023/03/14 10:17:51;;;;;;;11.50;0.70;;;20.40;72.10;;;;;;5043340;28;20209;-56
2023/03/14 10:20:33;;;;;;;1.00;0.73;;;20.40;72.00;;;;;;5044880;28;20391;-59
2023/03/14 10:23:00;;;;;;;1.90;0.80;;;20.50;72.20;;;;;;5041615;28;20236;-58
2023/03/14 10:25:29;;;;;;;1.05;0.73;;;20.50;72.30;;;;;;5042128;28;20533;-57
2023/03/14 10:27:57;;;;;;;3.35;0.80;;;20.50;72.30;;;;;;5041869;28;20196;-54
2023/03/14 10:30:43;;;;;;;1.20;0.80;;;20.60;72.50;;;;;;5046292;28;20188;-56
2023/03/14 10:33:19;;;;;;;1.77;0.90;;;20.60;72.60;;;;;;5040058;28;20700;-61
2023/03/14 10:35:46;;;;;;;1.00;0.80;;;20.60;72.70;;;;;;5051356;28;20587;-61
2023/03/14 10:38:15;;;;;;;1.70;0.82;;;20.60;72.80;;;;;;5048941;28;20199;-55
2023/03/14 10:40:49;;;;;;;1.00;0.70;;;20.60;72.90;;;;;;5048921;28;20199;-57
2023/03/14 10:43:21;;;;;;;2.55;0.80;;;20.60;72.90;;;;;;5049602;28;20200;-57
2023/03/14 10:45:57;;;;;;;1.30;0.90;;;20.60;73.10;;;;;;5050147;28;20203;-58
2023/03/14 10:48:29;;;;;;;1.80;0.70;;;20.70;73.30;;;;;;5041510;28;20223;-52
2023/03/14 10:50:58;;;;;;;1.20;0.80;;;20.70;73.20;;;;;;5051723;28;20199;-55
2023/03/14 10:53:26;;;;;;;1.00;0.77;;;20.70;73.30;;;;;;5040727;28;20203;-52
2023/03/14 10:55:52;;;;;;;1.90;0.90;;;20.80;74.40;;;;;;5047975;28;20540;-56
2023/03/14 10:58:25;;;;;;;1.35;0.70;;;20.80;73.60;;;;;;5050071;28;20214;-55
2023/03/14 11:01:10;;;;;;;1.08;0.70;;;20.80;73.70;;;;;;5050911;28;20206;-58
2023/03/14 11:03:38;;;;;;;1.15;0.70;;;20.80;73.80;;;;;;5044144;28;20269;-57
2023/03/14 11:06:11;;;;;;;1.55;0.90;;;20.80;73.90;;;;;;5048622;28;20265;-54
2023/03/14 11:08:46;;;;;;;1.43;0.70;;;20.80;73.90;;;;;;5045802;28;20196;-54
2023/03/14 11:11:19;;;;;;;1.10;0.70;;;20.80;74.00;;;;;;5044696;28;20784;-55
2023/03/14 11:13:59;;;;;;;1.30;0.77;;;20.80;74.00;;;;;;5042763;28;20466;-58
2023/03/14 11:16:33;;;;;;;1.13;0.90;;;20.90;74.40;;;;;;5046710;28;20450;-50
2023/03/14 11:19:18;;;;;;;1.20;0.70;;;20.90;74.20;;;;;;5040932;28;20464;-54
2023/03/14 11:21:52;;;;;;;1.47;0.97;;;20.90;74.20;;;;;;5039138;28;20481;-54
2023/03/14 11:24:31;;;;;;;1.07;0.70;;;20.90;74.20;;;;;;5048390;28;20454;-51
2023/03/14 11:27:05;;;;;;;3.50;0.90;;;20.90;74.20;;;;;;5046188;28;20541;-55
2023/03/14 11:29:39;;;;;;;1.10;0.80;;;20.90;74.20;;;;;;5041194;28;20458;-64
2023/03/14 11:32:14;;;;;;;1.40;1.00;;;20.90;74.20;;;;;;5046653;28;20501;-59
2023/03/14 11:34:48;;;;;;;0.90;0.80;;;20.90;74.20;;;;;;5050459;28;20546;-52
2023/03/14 11:37:22;;;;;;;1.00;0.80;;;21.00;74.30;;;;;;5049495;28;20454;-58
2023/03/14 11:39:59;;;;;;;11.10;0.90;;;21.00;74.30;;;;;;5049439;28;21008;-50
2023/03/14 11:42:27;;;;;;;1.00;0.80;;;21.00;74.30;;;;;;5046440;28;20947;-57
2023/03/14 11:44:58;;;;;;;1.70;0.77;;;21.00;74.30;;;;;;5047281;28;20587;-54
2023/03/14 11:47:30;;;;;;;6.77;0.73;;;21.00;74.30;;;;;;5041707;28;20466;-58
2023/03/14 11:50:02;;;;;;;0.93;0.70;;;21.00;74.30;;;;;;5049029;28;20484;-54
2023/03/14 11:52:33;;;;;;;1.00;0.70;;;21.00;74.30;;;;;;5046776;28;20470;-58
2023/03/14 11:55:06;;;;;;;0.90;0.73;;;21.10;74.50;;;;;;5047071;28;20466;-58
2023/03/14 11:57:33;;;;;;;1.20;0.80;;;21.00;74.40;;;;;;5046615;28;20486;-63
2023/03/14 12:00:05;;;;;;;2.83;0.80;;;21.10;74.50;;;;;;5034740;28;20459;-62
2023/03/14 12:02:41;;;;;;;1.10;0.90;;;21.10;74.40;;;;;;5048358;28;20460;-58
2023/03/14 12:05:40;;;;;;;1.00;0.70;;;21.00;74.30;;;;;;5050035;28;20468;-56
2023/03/14 12:08:30;;;;;;;0.93;0.80;;;21.00;74.30;;;;;;5046126;28;20458;-65
2023/03/14 12:11:02;;;;;;;1.57;0.80;;;21.10;74.50;;;;;;5045870;28;20458;-62
2023/03/14 12:13:30;;;;;;;1.00;0.70;;;21.10;74.40;;;;;;5040151;28;20477;-56
2023/03/14 12:16:00;;;;;;;3.10;0.90;;;21.10;74.40;;;;;;5048008;28;20466;-60
2023/03/14 12:18:29;;;;;;;1.10;0.60;;;21.10;74.40;;;;;;5047112;28;20469;-62
2023/03/14 12:20:59;;;;;;;1.20;0.70;;;21.10;74.40;;;;;;5041738;28;20469;-61
2023/03/14 12:23:27;;;;;;;0.97;0.73;;;21.10;74.40;;;;;;5043289;28;20481;-58
2023/03/14 12:26:17;;;;;;;1.80;0.73;;;21.10;74.40;;;;;;5046370;28;20465;-60
2023/03/14 12:28:50;;;;;;;1.10;0.70;;;21.10;74.30;;;;;;5043121;28;20953;-59
2023/03/14 12:31:42;;;;;;;2.20;1.00;;;21.20;74.50;;;;;;5048451;28;20536;-62
2023/03/14 12:34:30;;;;;;;2.13;0.70;;;21.20;74.50;;;;;;5045947;28;20464;-65
2023/03/14 12:37:10;;;;;;;1.00;0.70;;;21.20;74.50;;;;;;5049303;28;20457;-55
2023/03/14 12:39:46;;;;;;;1.10;0.90;;;21.20;74.50;;;;;;5044826;28;20830;-54
2023/03/14 12:42:15;;;;;;;1.20;0.70;;;21.20;74.50;;;;;;5046841;28;20469;-60
2023/03/14 12:44:47;;;;;;;1.00;0.70;;;21.20;74.50;;;;;;5046398;28;20462;-61
2023/03/14 12:47:44;;;;;;;1.27;0.77;;;21.20;74.50;;;;;;5045916;28;20462;-67
2023/03/14 12:50:20;;;;;;;1.00;0.70;;;21.20;74.50;;;;;;5037569;28;20462;-63
2023/03/14 12:53:10;;;;;;;1.00;0.80;;;21.20;74.50;;;;;;5042791;28;20485;-56
2023/03/14 12:55:41;;;;;;;1.30;0.80;;;21.20;74.50;;;;;;5047592;28;20462;-57
2023/03/14 12:58:16;;;;;;;1.00;0.73;;;21.20;74.50;;;;;;5039277;28;20454;-55